createdAt,value
2018-07-13T00:04:51.146Z,24.62
2018-07-13T00:09:54.650Z,24.63
2018-07-13T00:15:08.457Z,24.62
2018-07-13T00:20:11.918Z,24.57
2018-07-13T00:25:15.458Z,24.57
2018-07-13T00:30:19.009Z,24.55
2018-07-13T00:35:22.513Z,24.55
2018-07-13T00:40:25.978Z,24.51
2018-07-13T00:45:29.443Z,24.53
2018-07-13T00:50:33.002Z,24.50
2018-07-13T00:55:36.631Z,24.49
2018-07-13T01:00:40.098Z,24.50
2018-07-13T01:05:43.846Z,24.49
2018-07-13T01:10:47.869Z,24.50
2018-07-13T01:15:51.323Z,24.51
2018-07-13T01:20:54.837Z,24.51
2018-07-13T01:25:58.312Z,24.51
2018-07-13T01:31:01.774Z,24.50
2018-07-13T01:36:05.249Z,24.49
2018-07-13T01:41:08.986Z,24.49
2018-07-13T01:46:12.408Z,24.46
2018-07-13T01:51:15.861Z,24.47
2018-07-13T01:56:19.285Z,24.48
2018-07-13T02:01:22.832Z,24.47
2018-07-13T02:06:26.381Z,24.45
2018-07-13T02:11:30.108Z,24.46
2018-07-13T02:16:33.640Z,24.43
2018-07-13T02:21:37.065Z,24.43
2018-07-13T02:26:40.526Z,24.43
2018-07-13T02:31:43.982Z,24.40
2018-07-13T02:36:47.486Z,24.42
2018-07-13T02:41:51.578Z,24.38
2018-07-13T02:46:55.614Z,24.38
2018-07-13T02:51:59.123Z,24.38
2018-07-13T02:57:02.754Z,24.36
2018-07-13T03:02:06.533Z,24.32
2018-07-13T03:07:10.112Z,24.33
2018-07-13T03:12:13.574Z,24.33
2018-07-13T03:17:17.042Z,24.32
2018-07-13T03:22:20.486Z,24.31
2018-07-13T03:27:24.060Z,24.32
2018-07-13T03:32:27.758Z,24.32
2018-07-13T03:37:31.202Z,24.31
2018-07-13T03:42:34.682Z,24.32
2018-07-13T03:47:38.190Z,24.34
2018-07-13T03:52:41.630Z,24.36
2018-07-13T03:57:45.115Z,24.38
2018-07-13T04:02:49.258Z,24.42
2018-07-13T04:07:52.919Z,24.42
2018-07-13T04:12:56.365Z,24.18
2018-07-13T04:17:59.961Z,23.98
2018-07-13T04:23:03.518Z,23.98
2018-07-13T04:28:07.345Z,23.97
2018-07-13T04:33:10.805Z,23.90
2018-07-13T04:38:14.282Z,23.85
2018-07-13T04:43:17.891Z,23.78
2018-07-13T04:48:21.507Z,23.75
2018-07-13T04:53:24.998Z,23.75
2018-07-13T04:58:28.453Z,23.59
2018-07-13T05:03:31.893Z,23.42
2018-07-13T05:08:35.328Z,23.35
2018-07-13T05:13:38.829Z,23.19
2018-07-13T05:18:42.287Z,23.17
2018-07-13T05:23:45.725Z,23.13
2018-07-13T05:28:49.330Z,23.07
2018-07-13T05:33:52.768Z,23.10
2018-07-13T05:38:56.228Z,23.03
2018-07-13T05:43:59.929Z,22.99
2018-07-13T05:49:03.369Z,22.99
2018-07-13T05:54:06.835Z,23.03
2018-07-13T05:59:10.380Z,22.86
2018-07-13T06:04:13.925Z,22.85
2018-07-13T06:09:17.440Z,22.87
2018-07-13T06:14:20.860Z,22.99
2018-07-13T06:19:24.388Z,23.09
2018-07-13T06:24:27.821Z,23.01
2018-07-13T06:29:31.414Z,23.01
2018-07-13T06:34:34.915Z,23.12
2018-07-13T06:39:38.535Z,23.09
2018-07-13T06:44:42.188Z,23.02
2018-07-13T06:49:45.627Z,23.02
2018-07-13T06:54:49.592Z,23.13
2018-07-13T06:59:53.029Z,23.04
2018-07-13T07:05:11.766Z,23.05
2018-07-13T07:10:15.254Z,23.08
2018-07-13T07:15:18.698Z,23.13
2018-07-13T07:20:22.224Z,23.13
2018-07-13T07:25:25.641Z,23.11
2018-07-13T07:30:29.082Z,23.15
2018-07-13T07:35:32.539Z,23.24
2018-07-13T07:40:35.982Z,23.23
2018-07-13T07:45:39.487Z,23.17
2018-07-13T07:50:43.058Z,23.22
2018-07-13T07:55:46.519Z,23.28
2018-07-13T08:00:50.069Z,23.25
2018-07-13T08:05:53.575Z,23.22
2018-07-13T08:10:57.078Z,23.20
2018-07-13T08:16:01.042Z,23.27
2018-07-13T08:21:04.588Z,23.26
2018-07-13T08:26:08.401Z,23.29
2018-07-13T08:31:12.035Z,23.26
2018-07-13T08:36:15.657Z,23.29
2018-07-13T08:41:19.144Z,23.34
2018-07-13T08:46:22.622Z,23.39
2018-07-13T08:51:26.417Z,23.42
2018-07-13T08:56:30.099Z,23.42
2018-07-13T09:01:33.794Z,23.45
2018-07-13T09:06:37.555Z,23.48
2018-07-13T09:11:41.238Z,23.52
2018-07-13T09:16:44.706Z,23.50
2018-07-13T09:21:48.326Z,23.51
2018-07-13T09:26:51.837Z,23.54
2018-07-13T09:31:55.348Z,23.58
2018-07-13T09:36:59.074Z,23.57
2018-07-13T09:42:02.534Z,23.59
2018-07-13T09:47:06.191Z,23.63
2018-07-13T09:52:09.593Z,23.65
2018-07-13T09:57:13.426Z,23.71
2018-07-13T10:02:16.999Z,23.77
2018-07-13T10:07:20.782Z,23.79
2018-07-13T10:12:24.246Z,23.81
2018-07-13T10:17:28.117Z,23.84
2018-07-13T10:22:32.036Z,23.85
2018-07-13T10:27:37.330Z,23.87
2018-07-13T10:32:42.382Z,23.89
2018-07-13T10:37:46.171Z,23.92
2018-07-13T10:42:49.894Z,23.96
2018-07-13T10:47:53.603Z,24.09
2018-07-13T10:52:57.110Z,24.20
2018-07-13T10:58:00.602Z,24.32
2018-07-13T11:03:04.042Z,24.37
2018-07-13T11:08:07.695Z,24.41
2018-07-13T11:13:11.130Z,24.49
2018-07-13T11:18:15.107Z,24.59
2018-07-13T11:23:42.303Z,24.67
2018-07-13T11:28:46.050Z,24.75
2018-07-13T11:33:49.585Z,25.18
2018-07-13T11:38:53.053Z,25.11
2018-07-13T11:43:56.483Z,24.98
2018-07-13T11:48:59.917Z,25.03
2018-07-13T11:54:03.411Z,25.08
2018-07-13T11:59:06.942Z,25.14
2018-07-13T12:04:12.339Z,25.19
2018-07-13T12:09:29.030Z,25.23
2018-07-13T12:14:33.377Z,25.29
2018-07-13T12:19:37.032Z,25.32
2018-07-13T12:24:43.419Z,25.35
2018-07-13T12:29:47.122Z,25.40
2018-07-13T12:34:50.621Z,25.44
2018-07-13T12:39:54.145Z,25.45
2018-07-13T12:44:57.564Z,25.48
2018-07-13T12:50:01.096Z,25.52
2018-07-13T12:55:04.860Z,25.54
2018-07-13T13:00:12.449Z,25.58
2018-07-13T13:05:15.953Z,25.62
2018-07-13T13:10:19.532Z,25.63
2018-07-13T13:15:23.046Z,25.64
2018-07-13T13:20:26.432Z,25.66
2018-07-13T13:25:30.130Z,25.65
2018-07-13T13:30:33.758Z,25.68
2018-07-13T13:35:37.179Z,25.63
2018-07-13T13:40:40.813Z,25.65
2018-07-13T13:45:44.566Z,25.71
2018-07-13T13:50:48.308Z,25.75
2018-07-13T13:55:51.913Z,25.75
2018-07-13T14:00:55.747Z,25.73
2018-07-13T14:05:59.270Z,25.67
2018-07-13T14:11:03.465Z,25.69
2018-07-13T14:16:07.042Z,25.66
2018-07-13T14:21:10.590Z,25.65
2018-07-13T14:26:14.246Z,25.65
2018-07-13T14:31:17.688Z,25.58
2018-07-13T14:36:21.354Z,25.54
2018-07-13T14:41:24.976Z,25.50
2018-07-13T14:46:28.467Z,25.45
2018-07-13T14:51:31.957Z,25.40
2018-07-13T14:56:35.522Z,25.44
2018-07-13T15:01:39.055Z,25.46
2018-07-13T15:06:42.947Z,25.50
2018-07-13T15:11:46.440Z,25.47
2018-07-13T15:16:50.014Z,25.46
2018-07-13T15:21:53.590Z,25.42
2018-07-13T15:26:57.342Z,25.41
2018-07-13T15:32:01.238Z,25.39
2018-07-13T15:37:04.686Z,25.37
2018-07-13T15:42:08.378Z,25.40
2018-07-13T15:47:11.819Z,25.39
2018-07-13T15:52:15.306Z,25.39
2018-07-13T15:57:18.931Z,25.38
2018-07-13T16:02:22.402Z,25.38
2018-07-13T16:07:25.861Z,25.38
2018-07-13T16:12:29.369Z,25.40
2018-07-13T16:17:33.008Z,25.39
2018-07-13T16:22:36.550Z,25.39
2018-07-13T16:27:40.079Z,25.39
2018-07-13T16:32:43.513Z,25.39
2018-07-13T16:37:47.080Z,25.39
2018-07-13T16:42:51.243Z,25.40
2018-07-13T16:47:54.734Z,25.39
2018-07-13T16:52:58.217Z,25.49
2018-07-13T16:58:01.659Z,25.63
2018-07-13T17:03:05.336Z,25.78
2018-07-13T17:08:08.804Z,25.86
2018-07-13T17:13:12.534Z,25.95
2018-07-13T17:18:16.301Z,25.95
2018-07-13T17:23:19.843Z,26.00
2018-07-13T17:28:23.325Z,25.97
2018-07-13T17:33:26.829Z,25.99
2018-07-13T17:38:30.395Z,25.98
2018-07-13T17:43:34.246Z,25.96
2018-07-13T17:48:38.234Z,25.93
2018-07-13T17:53:42.023Z,25.90
2018-07-13T17:58:45.534Z,25.86
2018-07-13T18:03:49.806Z,25.84
2018-07-13T18:08:53.614Z,25.79
2018-07-13T18:13:57.248Z,25.77
2018-07-13T18:19:00.740Z,25.76
2018-07-13T18:24:04.379Z,25.75
2018-07-13T18:29:07.831Z,25.73
2018-07-13T18:34:11.405Z,25.72
2018-07-13T18:39:14.890Z,25.70
2018-07-13T18:44:18.483Z,25.78
2018-07-13T18:49:22.639Z,25.89
2018-07-13T18:54:26.244Z,25.93
2018-07-13T18:59:30.176Z,25.99
2018-07-13T19:04:33.730Z,26.05
2018-07-13T19:09:37.298Z,26.11
2018-07-13T19:14:40.846Z,26.01
2018-07-13T19:19:44.362Z,25.93
2018-07-13T19:24:47.910Z,25.88
2018-07-13T19:29:51.514Z,25.84
2018-07-13T19:34:55.793Z,25.82
2018-07-13T19:40:00.283Z,25.78
2018-07-13T19:45:04.086Z,25.73
2018-07-13T19:50:08.805Z,25.71
2018-07-13T19:55:12.470Z,25.67
2018-07-13T20:00:16.069Z,25.64
2018-07-13T20:05:19.877Z,25.62
2018-07-13T20:10:23.768Z,25.57
2018-07-13T20:15:28.303Z,25.55
2018-07-13T20:20:32.520Z,25.53
2018-07-13T20:25:37.086Z,25.50
2018-07-13T20:30:41.322Z,25.48
2018-07-13T20:35:44.948Z,25.46
2018-07-13T20:40:48.818Z,25.43
2018-07-13T20:45:52.865Z,25.41
2018-07-13T20:50:57.998Z,25.39
2018-07-13T20:56:01.807Z,25.37
2018-07-13T21:01:05.563Z,25.35
2018-07-13T21:06:09.693Z,25.35
2018-07-13T21:11:13.499Z,25.33
2018-07-13T21:16:17.399Z,25.31
2018-07-13T21:21:22.313Z,25.30
2018-07-13T21:26:25.788Z,25.28
2018-07-13T21:31:29.292Z,25.26
2018-07-13T21:36:32.891Z,25.25
2018-07-13T21:41:36.534Z,25.22
2018-07-13T21:46:40.252Z,25.23
2018-07-13T21:51:43.767Z,25.20
2018-07-13T21:56:47.530Z,25.19
2018-07-13T22:01:51.128Z,25.17
2018-07-13T22:06:54.575Z,25.16
2018-07-13T22:11:58.230Z,25.13
2018-07-13T22:17:01.851Z,25.13
2018-07-13T22:22:05.473Z,25.12
2018-07-13T22:27:09.033Z,25.09
2018-07-13T22:32:12.994Z,25.08
2018-07-13T22:37:16.635Z,25.08
2018-07-13T22:42:20.457Z,25.04
2018-07-13T22:47:24.211Z,25.04
2018-07-13T22:52:27.896Z,25.02
2018-07-13T22:57:31.374Z,25.01
2018-07-13T23:02:35.204Z,24.99
2018-07-13T23:07:38.696Z,24.98
2018-07-13T23:12:42.253Z,24.98
2018-07-13T23:17:45.766Z,24.95
2018-07-13T23:22:49.229Z,24.93
2018-07-13T23:27:52.810Z,24.93
2018-07-13T23:32:56.343Z,24.91
2018-07-13T23:37:59.913Z,24.91
2018-07-13T23:43:03.968Z,24.89
2018-07-13T23:48:07.438Z,24.88
2018-07-13T23:53:11.103Z,24.87
2018-07-13T23:58:14.594Z,24.87
